createdAt,value
2023-01-02T00:02:49.065Z,11.25
2023-01-02T00:12:55.459Z,9.93
2023-01-02T00:23:02.456Z,10.64
2023-01-02T00:33:08.870Z,10.07
2023-01-02T00:43:15.193Z,9.88
2023-01-02T00:53:21.695Z,10.46
2023-01-02T01:03:28.256Z,10.26
2023-01-02T01:13:34.568Z,10.85
2023-01-02T01:23:41.292Z,10.56
2023-01-02T01:33:47.690Z,10.28
2023-01-02T01:44:04.322Z,9.96
2023-01-02T01:54:11.905Z,9.02
2023-01-02T02:04:19.710Z,8.80
2023-01-02T02:14:26.054Z,9.45
2023-01-02T02:25:07.704Z,9.10
2023-01-02T02:35:23.025Z,7.36
2023-01-02T02:45:43.172Z,8.35
2023-01-02T02:55:52.790Z,8.33
2023-01-02T03:06:17.763Z,8.03
2023-01-02T03:16:43.582Z,8.69
2023-01-02T03:26:52.881Z,8.53
2023-01-02T03:37:09.927Z,8.54
2023-01-02T03:47:38.613Z,7.63
2023-01-02T03:57:57.650Z,8.13
2023-01-02T04:08:07.634Z,8.22
2023-01-02T04:18:22.472Z,7.94
2023-01-02T04:28:30.962Z,8.48
2023-01-02T04:38:37.311Z,7.42
2023-01-02T04:48:43.610Z,7.37
2023-01-02T04:58:50.904Z,7.61
2023-01-02T05:08:57.246Z,7.14
2023-01-02T05:19:03.729Z,5.89
2023-01-02T05:29:10.077Z,5.50
2023-01-02T05:39:16.367Z,5.95
2023-01-02T05:49:22.663Z,4.36
2023-01-02T05:59:28.961Z,3.69
2023-01-02T06:09:35.346Z,3.71
2023-01-02T06:19:41.638Z,3.46
2023-01-02T06:29:47.940Z,3.32
2023-01-02T06:39:54.260Z,3.38
2023-01-02T06:50:00.640Z,3.18
2023-01-02T07:00:07.438Z,3.43
2023-01-02T07:10:13.769Z,3.31
2023-01-02T07:20:20.306Z,3.28
2023-01-02T07:30:26.623Z,3.82
2023-01-02T07:40:34.383Z,3.94
2023-01-02T07:50:40.779Z,4.67
2023-01-02T08:00:47.055Z,5.19
2023-01-02T08:10:53.352Z,5.44
2023-01-02T08:20:59.637Z,6.17
2023-01-02T08:31:10.387Z,7.77
2023-01-02T08:41:16.749Z,8.06
2023-01-02T08:51:23.019Z,8.64
2023-01-02T09:01:31.290Z,9.02
2023-01-02T09:11:39.748Z,8.91
2023-01-02T09:21:46.073Z,10.95
2023-01-02T09:31:52.326Z,11.37
2023-01-02T09:42:00.993Z,12.26
2023-01-02T09:52:16.515Z,11.44
2023-01-02T10:02:41.565Z,11.89
2023-01-02T10:13:09.393Z,12.11
2023-01-02T10:23:24.691Z,12.72
2023-01-02T10:33:37.794Z,13.72
2023-01-02T10:43:44.217Z,14.85
2023-01-02T10:54:08.466Z,15.96
2023-01-02T11:04:27.456Z,17.03
2023-01-02T11:14:36.012Z,17.66
2023-01-02T11:25:19.303Z,18.15
2023-01-02T11:35:47.168Z,16.85
2023-01-02T11:45:53.730Z,17.34
2023-01-02T11:56:09.231Z,17.77
2023-01-02T12:06:37.555Z,16.94
2023-01-02T12:17:02.596Z,16.76
2023-01-02T12:27:31.990Z,16.50
2023-01-02T12:37:51.681Z,16.30
2023-01-02T12:48:35.991Z,16.56
2023-01-02T12:58:46.308Z,16.35
2023-01-02T13:09:22.864Z,16.26
2023-01-02T13:19:43.401Z,15.74
2023-01-02T13:29:49.766Z,15.43
2023-01-02T13:40:01.629Z,14.98
2023-01-02T13:50:34.759Z,14.68
2023-01-02T14:00:46.968Z,14.68
2023-01-02T14:11:10.250Z,14.29
2023-01-02T14:21:18.159Z,14.03
2023-01-02T14:31:34.576Z,13.63
2023-01-02T14:42:31.602Z,13.22
2023-01-02T14:52:40.713Z,12.78
2023-01-02T15:02:48.994Z,12.50
2023-01-02T15:13:08.348Z,12.32
2023-01-02T15:23:21.406Z,12.08
2023-01-02T15:33:35.105Z,11.84
2023-01-02T15:43:59.768Z,11.80
2023-01-02T15:54:06.419Z,11.36
2023-01-02T16:04:28.496Z,11.34
2023-01-02T16:14:44.010Z,11.24
2023-01-02T16:25:09.687Z,11.18
2023-01-02T16:35:25.530Z,10.97
2023-01-02T16:45:32.644Z,10.81
2023-01-02T16:55:38.994Z,10.69
2023-01-02T17:06:01.297Z,10.56
2023-01-02T17:16:09.553Z,10.32
2023-01-02T17:26:15.966Z,10.32
2023-01-02T17:36:22.301Z,10.17
2023-01-02T17:56:55.042Z,9.97
2023-01-02T18:07:02.968Z,9.94
2023-01-02T18:17:28.429Z,9.79
2023-01-02T18:27:36.689Z,9.71
2023-01-02T18:37:43.355Z,9.66
2023-01-02T18:47:59.416Z,9.43
2023-01-02T18:58:09.367Z,9.51
2023-01-02T19:08:37.496Z,9.46
2023-01-02T19:18:48.931Z,9.48
2023-01-02T19:29:01.615Z,9.34
2023-01-02T19:39:28.660Z,9.26
2023-01-02T19:49:35.011Z,9.32
2023-01-02T19:59:43.988Z,9.23
2023-01-02T20:09:50.764Z,9.07
2023-01-02T20:19:57.750Z,9.08
2023-01-02T20:30:04.502Z,9.11
2023-01-02T20:40:11.664Z,9.09
2023-01-02T20:50:18.839Z,9.06
2023-01-02T21:00:25.200Z,9.09
2023-01-02T21:10:31.513Z,9.15
2023-01-02T21:20:41.221Z,9.15
2023-01-02T21:30:52.832Z,9.01
2023-01-02T21:41:19.618Z,9.01
2023-01-02T21:51:32.262Z,9.01
2023-01-02T22:01:39.329Z,9.00
2023-01-02T22:11:57.717Z,8.75
2023-01-02T22:22:04.896Z,8.60
2023-01-02T22:32:11.432Z,8.58
2023-01-02T22:43:03.225Z,8.29
2023-01-02T22:53:18.354Z,8.30
2023-01-02T23:03:24.916Z,8.32
2023-01-02T23:13:31.558Z,8.24
2023-01-02T23:23:37.956Z,8.17
2023-01-02T23:33:44.234Z,8.24
2023-01-02T23:43:49.169Z,8.10
2023-01-02T23:53:55.446Z,8.15
